Time;durP1;ratioP1;P1;durP2;ratioP2;P2;SDS_P1;SDS_P2;PMS_P1;PMS_P2;Temp;Humidity;BMP_temperature;BMP_pressure;BME280_temperature;BME280_humidity;BME280_pressure;Samples;Min_cycle;Max_cycle;Signal;HPM_P1;HPM_P2
2021/10/11 00:00:50;;;;;;;97.10;64.68;;;11.00;99.90;;;;;;5075946;28;20528;-76
2021/10/11 00:03:17;;;;;;;98.35;65.72;;;11.00;99.90;;;;;;5075256;28;20094;-76
2021/10/11 00:05:44;;;;;;;96.10;64.50;;;10.90;99.90;;;;;;5075264;28;20059;-76
2021/10/11 00:08:10;;;;;;;100.97;65.00;;;10.80;99.90;;;;;;5075036;28;20048;-76
2021/10/11 00:10:37;;;;;;;101.13;64.22;;;10.80;99.90;;;;;;5075309;28;20048;-75
2021/10/11 00:13:04;;;;;;;96.10;64.00;;;10.70;99.90;;;;;;5074866;28;20094;-76
2021/10/11 00:15:32;;;;;;;103.63;68.60;;;10.70;99.90;;;;;;5074958;28;20135;-76
2021/10/11 00:17:59;;;;;;;104.63;66.85;;;10.60;99.90;;;;;;5075945;28;20055;-75
2021/10/11 00:20:26;;;;;;;109.82;69.63;;;10.60;99.90;;;;;;5075804;28;20135;-76
2021/10/11 00:22:53;;;;;;;101.65;67.93;;;10.50;99.90;;;;;;5075360;28;20066;-76
2021/10/11 00:25:20;;;;;;;117.13;72.10;;;10.50;99.90;;;;;;5075467;28;20048;-75
2021/10/11 00:27:47;;;;;;;105.30;68.97;;;10.50;99.90;;;;;;5075376;28;20521;-76
2021/10/11 00:30:14;;;;;;;112.88;70.60;;;10.40;99.90;;;;;;5074856;28;20098;-76
2021/10/11 00:32:42;;;;;;;108.95;71.20;;;10.40;99.90;;;;;;5075332;28;20049;-75
2021/10/11 00:35:10;;;;;;;114.78;74.22;;;10.40;99.90;;;;;;5075352;28;20506;-77
2021/10/11 00:37:36;;;;;;;118.68;73.57;;;10.30;99.90;;;;;;5076090;28;20084;-77
2021/10/11 00:40:05;;;;;;;121.40;74.40;;;10.30;99.90;;;;;;5075783;28;20054;-76
2021/10/11 00:42:31;;;;;;;115.60;72.28;;;10.30;99.90;;;;;;5074993;28;20127;-76
2021/10/11 00:44:58;;;;;;;113.45;73.95;;;10.30;99.90;;;;;;5075390;28;20417;-77
2021/10/11 00:47:25;;;;;;;116.82;72.40;;;10.30;99.90;;;;;;5075061;28;20049;-78
2021/10/11 00:49:53;;;;;;;117.32;73.15;;;10.30;99.90;;;;;;5074889;28;20044;-78
2021/10/11 00:52:20;;;;;;;117.47;72.82;;;10.30;99.90;;;;;;5075138;28;20048;-76
2021/10/11 00:54:47;;;;;;;120.57;74.82;;;10.30;99.90;;;;;;5074721;28;20245;-76
2021/10/11 00:57:14;;;;;;;118.03;74.07;;;10.20;99.90;;;;;;5074409;28;20417;-76
2021/10/11 00:59:41;;;;;;;117.35;72.10;;;10.30;99.90;;;;;;5074605;28;20131;-77
2021/10/11 01:02:08;;;;;;;116.80;74.85;;;10.30;99.90;;;;;;5074193;28;20423;-76
2021/10/11 01:04:36;;;;;;;113.93;73.13;;;10.30;99.90;;;;;;5074422;28;20055;-78
2021/10/11 01:07:04;;;;;;;109.20;72.88;;;10.30;99.90;;;;;;5074766;28;20131;-76
2021/10/11 01:09:31;;;;;;;110.57;72.05;;;10.40;99.90;;;;;;5075017;28;20055;-77
2021/10/11 01:11:59;;;;;;;108.70;71.88;;;10.40;99.90;;;;;;5074297;28;20429;-77
2021/10/11 01:14:26;;;;;;;112.85;73.70;;;10.40;99.90;;;;;;5074359;28;20044;-78
2021/10/11 01:16:53;;;;;;;118.47;73.55;;;10.40;99.90;;;;;;5073838;28;20151;-77
2021/10/11 01:19:20;;;;;;;118.35;74.88;;;10.40;99.90;;;;;;5074264;28;20139;-77
2021/10/11 01:21:48;;;;;;;113.18;70.75;;;10.40;99.90;;;;;;5074068;28;20049;-77
2021/10/11 01:24:15;;;;;;;114.47;72.72;;;10.40;99.90;;;;;;5074382;28;20052;-77
2021/10/11 01:26:44;;;;;;;109.97;73.05;;;10.30;99.90;;;;;;5074410;28;20049;-77
2021/10/11 01:29:13;;;;;;;112.25;72.63;;;10.30;99.90;;;;;;5075194;28;20131;-78
2021/10/11 01:31:40;;;;;;;110.13;72.32;;;10.30;99.90;;;;;;5074951;28;20051;-78
2021/10/11 01:34:07;;;;;;;108.20;73.38;;;10.20;99.90;;;;;;5074192;28;20135;-77
2021/10/11 01:36:34;;;;;;;115.65;71.90;;;10.30;99.90;;;;;;5073696;28;20055;-77
2021/10/11 01:39:05;;;;;;;110.13;72.60;;;10.40;99.90;;;;;;5073310;28;20135;-77
2021/10/11 01:41:32;;;;;;;105.45;69.65;;;10.50;99.90;;;;;;5072821;28;20048;-76
2021/10/11 01:43:59;;;;;;;106.38;70.55;;;10.60;99.90;;;;;;5074071;28;20052;-78
2021/10/11 01:46:26;;;;;;;102.18;68.78;;;10.70;99.90;;;;;;5074181;28;20124;-79
2021/10/11 01:48:53;;;;;;;106.88;69.00;;;10.70;99.90;;;;;;5074265;28;20066;-77
2021/10/11 01:51:20;;;;;;;111.60;69.90;;;10.80;99.90;;;;;;5073631;28;20109;-77
2021/10/11 01:53:47;;;;;;;106.70;70.85;;;10.80;99.90;;;;;;5073555;28;20045;-77
2021/10/11 01:56:15;;;;;;;100.85;67.40;;;10.90;99.90;;;;;;5073744;28;20080;-77
2021/10/11 01:58:42;;;;;;;108.03;68.80;;;10.90;99.90;;;;;;5072861;28;20132;-77
2021/10/11 02:01:09;;;;;;;98.97;68.03;;;11.00;99.90;;;;;;5073283;28;20052;-76
2021/10/11 02:03:35;;;;;;;106.97;69.47;;;11.00;99.90;;;;;;5073066;28;20055;-77
2021/10/11 02:06:02;;;;;;;104.90;68.28;;;11.00;99.90;;;;;;5073379;28;20044;-77
2021/10/11 02:08:29;;;;;;;103.15;67.43;;;11.10;99.90;;;;;;5073737;28;20419;-78
2021/10/11 02:10:56;;;;;;;103.50;66.97;;;11.10;99.90;;;;;;5073297;28;20472;-77
2021/10/11 02:13:24;;;;;;;106.53;67.57;;;11.20;99.90;;;;;;5072610;28;20066;-78
2021/10/11 02:15:51;;;;;;;103.72;69.55;;;11.20;99.90;;;;;;5073053;28;20044;-78
2021/10/11 02:18:18;;;;;;;109.63;69.13;;;11.20;99.90;;;;;;5072862;28;20407;-79
2021/10/11 02:20:45;;;;;;;104.78;69.15;;;11.20;99.90;;;;;;5072959;28;20048;-77
2021/10/11 02:23:12;;;;;;;105.22;68.90;;;11.30;99.90;;;;;;5072873;28;20354;-78
2021/10/11 02:25:39;;;;;;;105.80;68.78;;;11.20;99.90;;;;;;5073032;28;20048;-77
2021/10/11 02:28:06;;;;;;;104.57;69.03;;;11.20;99.90;;;;;;5073012;28;20087;-78
2021/10/11 02:30:34;;;;;;;108.55;69.55;;;11.20;99.90;;;;;;5073212;28;20055;-77
2021/10/11 02:33:01;;;;;;;111.97;71.38;;;11.20;99.90;;;;;;5072652;28;20106;-77
2021/10/11 02:35:28;;;;;;;110.95;72.10;;;11.30;99.90;;;;;;5072613;28;20052;-77
2021/10/11 02:37:54;;;;;;;111.95;72.05;;;11.30;99.90;;;;;;5072696;28;20049;-78
2021/10/11 02:40:21;;;;;;;118.60;74.45;;;11.30;99.90;;;;;;5072308;28;20163;-77
2021/10/11 02:42:48;;;;;;;106.97;71.95;;;11.40;99.90;;;;;;5072541;28;20127;-77
2021/10/11 02:45:15;;;;;;;114.80;75.90;;;11.40;99.90;;;;;;5072651;28;20090;-79
2021/10/11 02:47:43;;;;;;;121.25;77.10;;;11.40;99.90;;;;;;5072990;28;20135;-78
2021/10/11 02:50:10;;;;;;;120.82;77.90;;;11.40;99.90;;;;;;5072759;28;20086;-78
2021/10/11 02:52:37;;;;;;;118.60;75.60;;;11.40;99.90;;;;;;5071948;28;20048;-77
2021/10/11 02:55:06;;;;;;;117.55;74.35;;;11.40;99.90;;;;;;5072914;28;20131;-78
2021/10/11 02:57:33;;;;;;;126.85;78.07;;;11.40;99.90;;;;;;5072760;28;20083;-77
2021/10/11 03:00:00;;;;;;;124.03;79.07;;;11.40;99.90;;;;;;5072314;28;20052;-78
2021/10/11 03:02:27;;;;;;;129.20;79.50;;;11.40;99.90;;;;;;5072416;28;20048;-77
2021/10/11 03:04:55;;;;;;;130.55;80.90;;;11.40;99.90;;;;;;5072295;28;20057;-77
2021/10/11 03:07:22;;;;;;;134.73;82.43;;;11.40;99.90;;;;;;5072387;28;20131;-77
2021/10/11 03:09:49;;;;;;;130.57;80.22;;;11.40;99.90;;;;;;5072340;28;20518;-77
2021/10/11 03:12:16;;;;;;;137.93;81.38;;;11.50;99.90;;;;;;5072162;28;20553;-77
2021/10/11 03:14:45;;;;;;;132.32;82.22;;;11.50;99.90;;;;;;5072332;28;20079;-77
2021/10/11 03:17:12;;;;;;;136.95;84.53;;;11.40;99.90;;;;;;5072371;28;20131;-78
2021/10/11 03:19:39;;;;;;;144.20;85.00;;;11.50;99.90;;;;;;5072026;28;20159;-78
2021/10/11 03:22:07;;;;;;;159.38;90.38;;;11.50;99.90;;;;;;5071601;28;20112;-77
2021/10/11 03:24:34;;;;;;;149.48;90.60;;;11.50;99.90;;;;;;5072199;28;20131;-76
2021/10/11 03:27:01;;;;;;;158.27;89.82;;;11.50;99.90;;;;;;5072173;28;20049;-76
2021/10/11 03:29:27;;;;;;;160.00;92.45;;;11.50;99.90;;;;;;5072089;28;20393;-77
2021/10/11 03:31:55;;;;;;;164.95;91.75;;;11.60;99.90;;;;;;5071664;28;20048;-75
2021/10/11 03:34:22;;;;;;;166.65;94.90;;;11.60;99.90;;;;;;5071961;28;20517;-76
2021/10/11 03:36:49;;;;;;;161.23;94.57;;;11.60;99.90;;;;;;5072011;28;20139;-76
2021/10/11 03:39:17;;;;;;;163.10;90.93;;;11.70;99.90;;;;;;5072214;28;20421;-77
2021/10/11 03:41:44;;;;;;;163.63;90.03;;;11.80;99.90;;;;;;5071639;28;20044;-78
2021/10/11 03:44:10;;;;;;;140.93;84.70;;;11.90;99.90;;;;;;5071924;28;20048;-76
2021/10/11 03:46:37;;;;;;;139.65;82.32;;;11.90;99.90;;;;;;5071984;28;20446;-76
2021/10/11 03:49:05;;;;;;;140.68;81.85;;;11.90;99.90;;;;;;5068984;28;20046;-75
2021/10/11 03:51:32;;;;;;;146.52;81.65;;;11.90;99.90;;;;;;5070858;28;20369;-76
2021/10/11 03:53:59;;;;;;;139.57;80.88;;;11.90;99.90;;;;;;5070542;28;20135;-76
2021/10/11 03:56:27;;;;;;;141.15;82.22;;;11.90;99.90;;;;;;5070891;28;20461;-75
2021/10/11 03:58:54;;;;;;;150.45;82.72;;;11.90;99.90;;;;;;5070897;28;20131;-76
2021/10/11 04:01:21;;;;;;;140.95;81.38;;;11.90;99.90;;;;;;5070793;28;20557;-75
2021/10/11 04:03:49;;;;;;;144.73;83.53;;;11.90;99.90;;;;;;5070538;28;20055;-76
2021/10/11 04:06:17;;;;;;;151.50;84.65;;;11.90;99.90;;;;;;5074679;28;20334;-76
2021/10/11 04:08:46;;;;;;;155.45;85.50;;;11.90;99.90;;;;;;5074772;28;20513;-76
2021/10/11 04:11:23;;;;;;;150.18;85.75;;;11.90;99.90;;;;;;5074505;28;20075;-76
2021/10/11 04:13:52;;;;;;;158.73;87.03;;;11.80;99.90;;;;;;5074175;28;20056;-77
2021/10/11 04:16:19;;;;;;;159.27;87.47;;;11.80;99.90;;;;;;5074128;28;20689;-76
2021/10/11 04:18:46;;;;;;;149.25;84.65;;;11.90;99.90;;;;;;5074811;28;20087;-76
2021/10/11 04:21:13;;;;;;;154.45;84.88;;;11.90;99.90;;;;;;5074468;28;20128;-76
2021/10/11 04:23:40;;;;;;;152.35;84.07;;;11.90;99.90;;;;;;5074370;28;20139;-76
2021/10/11 04:26:06;;;;;;;153.70;85.55;;;11.90;99.90;;;;;;5072927;28;20052;-76
2021/10/11 04:28:33;;;;;;;158.73;86.18;;;11.90;99.90;;;;;;5074122;28;20055;-76
2021/10/11 04:31:02;;;;;;;149.35;85.93;;;11.90;99.90;;;;;;5074210;28;20506;-76
2021/10/11 04:33:28;;;;;;;154.55;85.07;;;11.90;99.90;;;;;;5074467;28;20075;-76
2021/10/11 04:35:55;;;;;;;151.52;86.70;;;11.90;99.90;;;;;;5074921;28;20477;-78
2021/10/11 04:38:22;;;;;;;159.95;86.97;;;12.00;99.90;;;;;;5074830;28;20131;-77
2021/10/11 04:40:49;;;;;;;164.68;89.45;;;11.90;99.90;;;;;;5074702;28;20106;-77
2021/10/11 04:43:16;;;;;;;159.80;87.72;;;11.90;99.90;;;;;;5074263;28;20054;-77
2021/10/11 04:45:43;;;;;;;164.15;88.57;;;11.90;99.90;;;;;;5074031;28;20449;-77
2021/10/11 04:48:11;;;;;;;168.90;88.45;;;11.90;99.90;;;;;;5074927;28;20064;-77
2021/10/11 04:50:39;;;;;;;172.63;89.18;;;11.90;99.90;;;;;;5074750;28;20052;-77
2021/10/11 04:53:08;;;;;;;171.18;88.60;;;11.90;99.90;;;;;;5074284;28;20052;-76
2021/10/11 04:55:35;;;;;;;167.00;89.68;;;11.80;99.90;;;;;;5074750;28;20145;-76
2021/10/11 04:58:02;;;;;;;167.05;86.60;;;11.90;99.90;;;;;;5074293;28;20478;-76
2021/10/11 05:00:30;;;;;;;172.43;87.55;;;11.90;99.90;;;;;;5074280;28;20083;-76
2021/10/11 05:11:31;;;;;;;174.77;82.78;;;12.00;99.90;;;;;;5074911;28;19909;-91
2021/10/11 05:13:59;;;;;;;176.32;84.35;;;12.00;99.90;;;;;;5106317;28;20159;-91
2021/10/11 05:16:32;;;;;;;183.48;86.65;;;12.00;99.90;;;;;;5114899;28;20145;-92
2021/10/11 05:18:59;;;;;;;184.55;86.47;;;12.00;99.90;;;;;;5122461;22;20049;-75
2021/10/11 05:21:26;;;;;;;187.50;87.00;;;12.00;99.90;;;;;;5074260;28;20080;-75
2021/10/11 05:23:53;;;;;;;190.13;86.25;;;12.10;99.90;;;;;;5053600;28;20140;-75
2021/10/11 05:26:20;;;;;;;191.48;84.78;;;12.10;99.90;;;;;;5053775;28;20060;-75
2021/10/11 05:28:48;;;;;;;202.27;85.88;;;12.20;99.90;;;;;;5053240;28;20053;-75
2021/10/11 05:31:16;;;;;;;190.30;87.68;;;12.10;99.90;;;;;;5053085;28;20055;-76
2021/10/11 05:33:43;;;;;;;184.90;84.05;;;12.10;99.90;;;;;;5053662;28;20091;-76
2021/10/11 05:36:10;;;;;;;189.93;86.68;;;12.10;99.90;;;;;;5054000;28;20516;-76
2021/10/11 05:38:37;;;;;;;179.07;84.05;;;12.20;99.90;;;;;;5053778;28;20132;-76
2021/10/11 05:41:04;;;;;;;187.93;84.00;;;12.20;99.90;;;;;;5053529;28;20131;-76
2021/10/11 05:43:30;;;;;;;189.57;82.90;;;12.20;99.90;;;;;;5053211;28;20109;-76
2021/10/11 05:45:59;;;;;;;167.60;80.07;;;12.30;99.90;;;;;;5053500;28;20148;-76
2021/10/11 05:48:25;;;;;;;182.63;79.47;;;12.30;99.90;;;;;;5053714;28;20053;-76
2021/10/11 05:50:52;;;;;;;173.20;78.53;;;12.30;99.90;;;;;;5053209;28;20045;-76
2021/10/11 05:53:19;;;;;;;177.25;78.85;;;12.40;99.90;;;;;;5058287;28;20087;-76
2021/10/11 05:55:46;;;;;;;167.45;77.22;;;12.40;99.90;;;;;;5072465;28;20080;-77
2021/10/11 05:58:13;;;;;;;160.05;73.53;;;12.40;99.90;;;;;;5072998;28;20087;-77
2021/10/11 06:00:40;;;;;;;141.02;67.25;;;12.40;99.90;;;;;;5071099;28;20397;-76
2021/10/11 06:03:09;;;;;;;141.18;66.03;;;12.50;99.90;;;;;;5068406;28;20151;-77
2021/10/11 06:05:36;;;;;;;129.85;63.80;;;12.50;99.90;;;;;;5067587;28;20102;-76
2021/10/11 06:08:03;;;;;;;123.57;58.25;;;12.50;99.90;;;;;;5070269;28;20048;-77
2021/10/11 06:10:30;;;;;;;104.70;53.03;;;12.60;99.90;;;;;;5072583;28;20048;-76
2021/10/11 06:12:57;;;;;;;98.13;48.97;;;12.60;99.90;;;;;;5072096;28;20052;-75
2021/10/11 06:15:24;;;;;;;88.18;45.88;;;12.60;99.90;;;;;;5072667;28;20139;-76
2021/10/11 06:17:51;;;;;;;82.05;43.22;;;12.60;99.90;;;;;;5073221;28;20480;-76
2021/10/11 06:20:19;;;;;;;79.00;43.80;;;12.60;99.90;;;;;;5073110;28;20135;-77
2021/10/11 06:22:46;;;;;;;81.35;43.50;;;12.50;99.90;;;;;;5072591;28;20044;-76
2021/10/11 06:25:13;;;;;;;79.50;42.20;;;12.50;99.90;;;;;;5073129;28;20051;-75
2021/10/11 06:27:40;;;;;;;83.78;41.63;;;12.60;99.90;;;;;;5072108;28;20054;-76
2021/10/11 06:30:08;;;;;;;78.72;41.63;;;12.60;99.90;;;;;;5072133;28;20055;-75
2021/10/11 06:32:35;;;;;;;75.22;38.55;;;12.60;99.90;;;;;;5072106;28;20053;-76
2021/10/11 06:35:02;;;;;;;75.20;39.90;;;12.60;99.90;;;;;;5072871;28;20040;-75
2021/10/11 06:37:30;;;;;;;78.55;42.50;;;12.70;99.90;;;;;;5073071;28;20135;-77
2021/10/11 06:39:57;;;;;;;73.38;37.58;;;12.70;99.90;;;;;;5072226;28;20076;-78
2021/10/11 06:42:24;;;;;;;63.38;34.05;;;12.70;99.90;;;;;;5072759;28;20131;-76
2021/10/11 06:44:51;;;;;;;64.85;35.60;;;12.80;99.90;;;;;;5072793;28;20120;-77
2021/10/11 06:47:18;;;;;;;52.75;30.92;;;12.80;99.90;;;;;;5072740;28;20536;-77
2021/10/11 06:49:46;;;;;;;58.17;30.65;;;12.80;99.90;;;;;;5072492;28;20557;-77
2021/10/11 06:52:14;;;;;;;55.53;28.83;;;12.80;99.90;;;;;;5071888;28;20049;-77
2021/10/11 06:54:42;;;;;;;54.70;28.33;;;12.90;99.90;;;;;;5072523;28;20059;-77
2021/10/11 06:57:09;;;;;;;43.20;26.58;;;12.90;99.90;;;;;;5072421;28;20048;-77
2021/10/11 06:59:36;;;;;;;45.97;26.70;;;12.90;99.90;;;;;;5072503;28;20048;-77
2021/10/11 07:02:03;;;;;;;46.55;26.02;;;13.00;99.90;;;;;;5072289;28;20055;-77
2021/10/11 07:04:31;;;;;;;45.22;25.38;;;13.00;99.90;;;;;;5072821;28;20127;-76
2021/10/11 07:06:57;;;;;;;48.47;25.33;;;13.00;99.90;;;;;;5072429;28;20056;-77
2021/10/11 07:09:24;;;;;;;48.83;25.98;;;13.00;99.90;;;;;;5073220;28;20044;-78
2021/10/11 07:11:53;;;;;;;44.13;24.08;;;13.00;99.90;;;;;;5072077;28;20136;-77
2021/10/11 07:14:20;;;;;;;43.70;24.35;;;13.00;99.90;;;;;;5073393;28;20505;-77
2021/10/11 07:16:47;;;;;;;37.75;23.00;;;13.00;99.90;;;;;;5073190;28;20600;-77
2021/10/11 07:19:15;;;;;;;35.33;21.92;;;13.00;99.90;;;;;;5072781;28;20080;-77
2021/10/11 07:21:44;;;;;;;38.70;21.77;;;13.10;99.90;;;;;;5074741;28;20048;-78
2021/10/11 07:24:12;;;;;;;38.35;20.70;;;13.20;99.90;;;;;;5075033;28;20060;-78
2021/10/11 07:26:40;;;;;;;35.65;19.85;;;13.10;99.90;;;;;;5076028;28;20049;-78
2021/10/11 07:29:09;;;;;;;34.85;19.13;;;13.20;99.90;;;;;;5074494;28;20747;-77
2021/10/11 07:31:36;;;;;;;31.13;17.60;;;13.20;99.90;;;;;;5072763;28;20132;-77
2021/10/11 07:34:02;;;;;;;29.10;16.52;;;13.20;99.90;;;;;;5071417;28;20135;-77
2021/10/11 07:36:29;;;;;;;28.38;16.70;;;13.20;99.90;;;;;;5072549;28;20058;-76
2021/10/11 07:38:56;;;;;;;32.70;16.90;;;13.20;99.90;;;;;;5075447;28;20067;-77
2021/10/11 07:41:23;;;;;;;26.13;15.48;;;13.40;99.90;;;;;;5076557;28;20059;-77
2021/10/11 07:43:50;;;;;;;22.15;13.90;;;13.70;99.90;;;;;;5076290;28;20132;-78
2021/10/11 07:46:18;;;;;;;22.27;13.27;;;14.10;99.90;;;;;;5076461;28;20055;-77
2021/10/11 07:48:45;;;;;;;24.85;12.38;;;14.50;99.90;;;;;;5076170;28;20083;-78
2021/10/11 07:51:12;;;;;;;22.55;12.23;;;15.00;99.90;;;;;;5076602;28;20518;-77
2021/10/11 07:53:39;;;;;;;19.63;11.57;;;15.30;99.90;;;;;;5075260;28;20557;-77
2021/10/11 07:56:07;;;;;;;23.55;10.60;;;15.40;99.90;;;;;;5076357;28;20048;-77
2021/10/11 07:58:34;;;;;;;18.17;9.77;;;15.50;99.90;;;;;;5076106;28;20055;-77
2021/10/11 08:01:01;;;;;;;17.23;9.60;;;15.50;99.90;;;;;;5075952;28;20090;-77
2021/10/11 08:03:29;;;;;;;22.13;10.70;;;15.50;99.90;;;;;;5075435;28;20092;-78
2021/10/11 08:05:56;;;;;;;21.33;9.68;;;15.40;99.90;;;;;;5075692;28;20131;-77
2021/10/11 08:08:23;;;;;;;15.50;9.20;;;15.40;99.90;;;;;;5076069;28;20168;-77
2021/10/11 08:10:50;;;;;;;16.38;9.15;;;15.40;99.90;;;;;;5076030;28;20080;-77
2021/10/11 08:13:17;;;;;;;14.60;8.82;;;15.40;99.90;;;;;;5075261;28;20127;-77
2021/10/11 08:15:44;;;;;;;17.20;8.45;;;15.40;99.90;;;;;;5075110;28;20101;-78
2021/10/11 08:18:13;;;;;;;14.90;8.30;;;15.40;99.90;;;;;;5075931;28;20136;-77
2021/10/11 08:20:41;;;;;;;18.15;8.05;;;15.40;99.90;;;;;;5076114;28;20079;-77
2021/10/11 08:23:09;;;;;;;19.40;9.00;;;15.40;99.90;;;;;;5076292;28;20477;-79
2021/10/11 08:25:36;;;;;;;20.52;8.55;;;15.30;99.90;;;;;;5075953;28;20061;-77
2021/10/11 08:28:03;;;;;;;18.55;8.25;;;15.20;99.90;;;;;;5075826;28;20131;-77
2021/10/11 08:30:31;;;;;;;17.50;8.25;;;15.20;99.90;;;;;;5075559;28;20048;-77
2021/10/11 08:32:58;;;;;;;18.25;8.38;;;15.20;99.90;;;;;;5075645;28;20092;-77
2021/10/11 08:35:25;;;;;;;15.77;7.38;;;15.30;99.90;;;;;;5074864;28;20091;-78
2021/10/11 08:37:54;;;;;;;19.70;6.80;;;15.40;99.90;;;;;;5075564;28;20048;-77
2021/10/11 08:40:22;;;;;;;15.55;6.55;;;15.30;99.90;;;;;;5075712;28;20098;-76
2021/10/11 08:42:50;;;;;;;21.95;7.35;;;15.30;99.90;;;;;;5075191;28;20140;-77
2021/10/11 08:45:17;;;;;;;20.48;7.32;;;15.40;99.90;;;;;;5077966;28;20052;-77
2021/10/11 08:47:44;;;;;;;17.33;6.85;;;15.40;99.90;;;;;;5076893;28;20151;-78
2021/10/11 08:50:12;;;;;;;15.13;6.75;;;15.50;99.90;;;;;;5075394;28;20036;-77
2021/10/11 08:52:39;;;;;;;15.02;6.10;;;15.60;99.90;;;;;;5075277;28;20067;-77
2021/10/11 08:55:09;;;;;;;15.45;6.40;;;15.70;99.90;;;;;;5075278;28;20049;-78
2021/10/11 08:57:35;;;;;;;13.80;5.80;;;15.70;99.90;;;;;;5074862;28;20064;-77
2021/10/11 09:00:11;;;;;;;18.55;6.03;;;15.70;99.90;;;;;;5075104;28;20139;-78
2021/10/11 09:02:51;;;;;;;16.85;6.25;;;15.70;99.90;;;;;;5074982;28;20135;-77
2021/10/11 09:05:22;;;;;;;16.77;6.63;;;15.70;99.90;;;;;;5075309;28;20048;-77
2021/10/11 09:07:58;;;;;;;14.85;5.90;;;15.70;99.90;;;;;;5075529;28;20056;-77
2021/10/11 09:10:27;;;;;;;15.18;6.18;;;15.70;99.90;;;;;;5075683;28;20559;-78
2021/10/11 09:12:54;;;;;;;11.98;5.13;;;15.80;99.90;;;;;;5075025;28;20056;-77
2021/10/11 09:15:25;;;;;;;12.25;4.78;;;15.80;99.90;;;;;;5074824;28;20053;-76
2021/10/11 09:17:55;;;;;;;9.60;4.20;;;15.90;99.90;;;;;;5075006;28;20055;-77
2021/10/11 09:20:25;;;;;;;12.05;4.13;;;15.90;99.90;;;;;;5074515;28;20131;-77
2021/10/11 09:22:54;;;;;;;15.80;5.00;;;15.80;99.90;;;;;;5074642;28;20140;-76
2021/10/11 09:25:22;;;;;;;15.77;4.85;;;15.70;99.90;;;;;;5074600;28;20136;-76
2021/10/11 09:27:53;;;;;;;11.52;4.78;;;15.70;99.90;;;;;;5074861;28;20442;-75
2021/10/11 09:30:21;;;;;;;14.50;5.07;;;15.60;99.90;;;;;;5074488;28;20131;-78
2021/10/11 09:32:48;;;;;;;19.38;5.40;;;15.60;99.90;;;;;;5073912;28;20057;-76
2021/10/11 09:35:17;;;;;;;19.92;5.15;;;15.60;99.90;;;;;;5074263;28;20139;-76
2021/10/11 09:37:53;;;;;;;12.23;4.55;;;15.60;99.90;;;;;;5074344;28;20140;-76
2021/10/11 09:40:23;;;;;;;14.45;4.65;;;15.70;99.90;;;;;;5074489;28;20048;-76
2021/10/11 09:42:52;;;;;;;11.02;4.22;;;15.80;99.90;;;;;;5073959;28;20501;-76
2021/10/11 09:45:24;;;;;;;10.80;4.00;;;15.90;99.90;;;;;;5074155;28;20131;-76
2021/10/11 09:47:51;;;;;;;9.80;3.67;;;15.90;99.90;;;;;;5074742;28;20052;-75
2021/10/11 09:50:18;;;;;;;7.35;3.78;;;15.90;99.90;;;;;;5074440;28;20136;-76
2021/10/11 09:52:46;;;;;;;11.40;3.85;;;15.90;99.90;;;;;;5074437;28;20672;-76
2021/10/11 09:55:14;;;;;;;14.48;4.40;;;16.00;99.90;;;;;;5074368;28;20084;-76
2021/10/11 09:57:41;;;;;;;14.02;4.30;;;16.00;99.90;;;;;;5073790;28;20102;-76
2021/10/11 10:00:12;;;;;;;12.23;3.88;;;16.10;99.90;;;;;;5073584;28;20497;-77
2021/10/11 10:02:41;;;;;;;10.13;3.78;;;16.20;99.90;;;;;;5073111;28;20128;-76
2021/10/11 10:05:12;;;;;;;13.70;4.20;;;16.20;99.90;;;;;;5074116;28;20060;-77
2021/10/11 10:07:44;;;;;;;12.70;5.00;;;16.30;99.90;;;;;;5074119;28;20526;-75
2021/10/11 10:10:13;;;;;;;18.38;4.60;;;16.40;99.90;;;;;;5074274;28;20044;-77
2021/10/11 10:12:45;;;;;;;12.57;4.30;;;16.40;99.90;;;;;;5073619;28;20152;-76
2021/10/11 10:15:13;;;;;;;13.80;3.88;;;16.40;99.90;;;;;;5073701;28;20131;-76
2021/10/11 10:17:40;;;;;;;14.85;4.15;;;16.40;99.90;;;;;;5073642;28;20048;-76
2021/10/11 10:20:11;;;;;;;14.75;4.45;;;16.40;99.90;;;;;;5073473;28;20529;-76
2021/10/11 10:22:50;;;;;;;14.38;4.10;;;16.50;99.90;;;;;;5073503;28;20055;-76
2021/10/11 10:25:17;;;;;;;14.68;4.38;;;16.40;99.90;;;;;;5073944;28;20052;-76
2021/10/11 10:27:46;;;;;;;16.92;4.22;;;16.30;99.90;;;;;;5073260;28;20044;-78
2021/10/11 10:30:19;;;;;;;10.95;3.47;;;16.30;99.90;;;;;;5073149;28;20513;-76
2021/10/11 10:32:54;;;;;;;13.23;3.72;;;16.30;99.90;;;;;;5072981;28;20468;-77
2021/10/11 10:35:21;;;;;;;11.93;4.00;;;16.30;99.90;;;;;;5073510;28;20110;-76
2021/10/11 10:37:48;;;;;;;14.65;4.22;;;16.30;99.90;;;;;;5073922;28;20064;-76
2021/10/11 10:40:17;;;;;;;11.57;3.63;;;16.30;99.90;;;;;;5073341;28;20426;-77
2021/10/11 10:42:45;;;;;;;8.65;3.80;;;16.40;99.90;;;;;;5073387;28;20044;-77
2021/10/11 10:45:19;;;;;;;12.35;4.00;;;16.50;99.90;;;;;;5073381;28;20055;-77
2021/10/11 10:47:47;;;;;;;14.85;3.60;;;16.60;99.90;;;;;;5074145;28;20135;-77
2021/10/11 10:50:16;;;;;;;17.33;4.65;;;16.60;99.90;;;;;;5073236;28;20072;-77
2021/10/11 10:52:47;;;;;;;11.88;4.03;;;16.60;99.90;;;;;;5073403;28;20131;-78
2021/10/11 10:55:14;;;;;;;7.93;3.50;;;16.50;99.90;;;;;;5073568;28;20056;-77
2021/10/11 10:57:42;;;;;;;13.93;3.83;;;16.50;99.90;;;;;;5072955;28;20055;-77
2021/10/11 11:00:16;;;;;;;11.98;3.83;;;16.40;99.90;;;;;;5073149;28;20131;-76
2021/10/11 11:02:46;;;;;;;11.60;4.07;;;16.40;99.90;;;;;;5073191;28;20088;-77
2021/10/11 11:05:15;;;;;;;12.57;3.70;;;16.40;99.90;;;;;;5073436;28;20055;-76
2021/10/11 11:07:44;;;;;;;13.52;3.50;;;16.50;99.90;;;;;;5073208;28;20072;-77
2021/10/11 11:10:13;;;;;;;9.90;3.90;;;16.60;99.90;;;;;;5073849;28;20142;-77
2021/10/11 11:12:42;;;;;;;14.18;3.88;;;16.60;99.90;;;;;;5073792;28;20092;-79
2021/10/11 11:17:53;;;;;;;15.25;4.50;;;16.50;99.90;;;;;;5091649;28;20044;-79
2021/10/11 11:20:24;;;;;;;15.00;4.25;;;16.50;99.90;;;;;;5095603;28;20078;-80
2021/10/11 11:22:51;;;;;;;16.95;4.45;;;16.50;99.90;;;;;;5096248;28;20051;-80
2021/10/11 11:25:26;;;;;;;13.88;5.07;;;16.50;99.90;;;;;;5097967;28;20478;-79
2021/10/11 11:27:55;;;;;;;12.40;4.00;;;16.50;99.90;;;;;;5097126;28;20055;-80
2021/10/11 11:30:22;;;;;;;7.68;3.53;;;16.50;99.90;;;;;;5097694;28;20098;-81
2021/10/11 11:32:50;;;;;;;10.57;4.20;;;16.60;99.90;;;;;;5095449;28;20048;-79
2021/10/11 11:35:21;;;;;;;15.75;4.88;;;16.60;99.90;;;;;;5094400;28;20123;-80
2021/10/11 11:37:48;;;;;;;11.90;4.43;;;16.70;99.90;;;;;;5093522;28;20092;-79
2021/10/11 11:40:17;;;;;;;14.38;4.22;;;16.70;99.90;;;;;;5092535;28;20127;-77
2021/10/11 11:42:45;;;;;;;12.10;4.32;;;16.80;99.90;;;;;;5093768;28;20122;-82
2021/10/11 11:45:12;;;;;;;12.30;3.72;;;16.70;99.90;;;;;;5096464;28;20051;-82
2021/10/11 11:47:39;;;;;;;11.00;3.92;;;16.70;99.90;;;;;;5096841;28;20112;-79
2021/10/11 11:50:19;;;;;;;9.25;3.35;;;16.70;99.90;;;;;;5096912;28;20135;-78
2021/10/11 11:52:52;;;;;;;10.95;3.80;;;16.70;99.90;;;;;;5097072;28;20450;-79
2021/10/11 11:55:19;;;;;;;13.35;4.00;;;16.70;99.90;;;;;;5095111;28;20048;-78
2021/10/11 11:57:46;;;;;;;15.48;4.07;;;16.70;99.90;;;;;;5092708;28;20067;-78
2021/10/11 12:00:14;;;;;;;14.73;3.97;;;16.60;99.90;;;;;;5092445;28;20144;-79
2021/10/11 12:02:45;;;;;;;11.88;4.25;;;16.50;99.90;;;;;;5091398;28;20135;-80
2021/10/11 12:05:12;;;;;;;10.70;3.95;;;16.60;99.90;;;;;;5092371;28;20052;-78
2021/10/11 12:07:43;;;;;;;17.50;4.40;;;16.70;99.90;;;;;;5091033;28;20517;-78
2021/10/11 12:10:16;;;;;;;8.07;3.75;;;16.70;99.90;;;;;;5094619;28;20048;-81
2021/10/11 12:12:44;;;;;;;12.73;4.20;;;16.60;99.90;;;;;;5095058;28;20051;-78
2021/10/11 12:15:19;;;;;;;13.15;3.88;;;16.50;99.90;;;;;;5095293;28;20048;-80
2021/10/11 12:17:46;;;;;;;13.65;4.68;;;16.60;99.90;;;;;;5094770;28;20488;-81
2021/10/11 12:20:13;;;;;;;16.50;4.32;;;16.50;99.90;;;;;;5093989;28;20055;-80
2021/10/11 12:22:43;;;;;;;14.52;3.65;;;16.50;99.90;;;;;;5096435;28;20135;-83
2021/10/11 12:25:12;;;;;;;12.18;4.10;;;16.40;99.90;;;;;;5097042;28;20097;-79
2021/10/11 12:27:39;;;;;;;13.90;3.90;;;16.30;99.90;;;;;;5100356;28;20447;-80
2021/10/11 12:30:10;;;;;;;19.77;4.20;;;16.30;99.90;;;;;;5098755;28;20143;-80
2021/10/11 12:32:38;;;;;;;14.18;3.78;;;16.20;99.90;;;;;;5098738;28;20052;-82
2021/10/11 12:35:07;;;;;;;9.77;3.70;;;16.20;99.90;;;;;;5097491;28;20056;-79
2021/10/11 12:37:40;;;;;;;11.25;3.70;;;16.20;99.90;;;;;;5097004;28;20048;-79
2021/10/11 12:40:11;;;;;;;16.20;3.83;;;16.20;99.90;;;;;;5098019;28;20059;-80